Time;durP1;ratioP1;P1;durP2;ratioP2;P2;SDS_P1;SDS_P2;PMS_P1;PMS_P2;Temp;Humidity;BMP_temperature;BMP_pressure;BME280_temperature;BME280_humidity;BME280_pressure;Samples;Min_cycle;Max_cycle;Signal;HPM_P1;HPM_P2
2022/03/28 00:01:18;;;;;;;19.10;5.18;;;12.80;77.30;;;;;;5140875;27;20066;-88
2022/03/28 00:03:45;;;;;;;21.85;5.35;;;12.70;77.40;;;;;;5140801;27;20035;-89
2022/03/28 00:06:10;;;;;;;19.70;5.00;;;12.70;77.60;;;;;;5140586;27;20105;-89
2022/03/28 00:08:37;;;;;;;21.63;5.32;;;12.70;77.80;;;;;;5140839;27;20069;-89
2022/03/28 00:11:04;;;;;;;23.40;5.97;;;12.60;78.00;;;;;;5140615;27;20439;-89
2022/03/28 00:13:30;;;;;;;20.42;5.10;;;12.60;78.20;;;;;;5123714;27;20026;-89
2022/03/28 00:15:55;;;;;;;24.10;6.30;;;12.60;78.20;;;;;;5123410;27;20126;-90
2022/03/28 00:18:21;;;;;;;21.50;5.53;;;12.60;78.40;;;;;;5140266;27;20046;-90
2022/03/28 00:20:49;;;;;;;18.15;5.57;;;12.50;78.60;;;;;;5123412;27;20030;-90
2022/03/28 00:23:15;;;;;;;24.63;5.80;;;12.50;78.70;;;;;;5123590;27;20414;-90
2022/03/28 00:25:44;;;;;;;21.95;5.50;;;12.40;78.80;;;;;;5123428;27;20015;-90
2022/03/28 00:28:10;;;;;;;19.25;5.10;;;12.40;79.00;;;;;;5123718;27;20086;-90
2022/03/28 00:30:36;;;;;;;27.88;5.18;;;12.40;79.10;;;;;;5140352;27;20030;-89
2022/03/28 00:33:01;;;;;;;29.52;5.60;;;12.40;79.20;;;;;;5140137;27;20034;-89
2022/03/28 00:35:27;;;;;;;22.10;5.13;;;12.30;80.00;;;;;;5123285;27;20031;-89
2022/03/28 00:37:54;;;;;;;20.65;5.40;;;12.30;79.80;;;;;;5139946;27;20019;-89
2022/03/28 00:40:20;;;;;;;15.50;4.20;;;12.30;79.90;;;;;;5123122;27;20369;-88
2022/03/28 00:42:48;;;;;;;24.63;5.18;;;12.20;79.90;;;;;;5122800;27;20019;-90
2022/03/28 00:45:14;;;;;;;20.27;4.45;;;12.20;80.00;;;;;;5123372;27;20023;-90
2022/03/28 00:47:41;;;;;;;21.90;5.55;;;12.20;80.20;;;;;;5140785;27;20023;-89
2022/03/28 00:50:10;;;;;;;23.52;5.50;;;12.10;80.40;;;;;;5122697;27;20472;-89
2022/03/28 00:52:38;;;;;;;23.65;6.05;;;12.10;80.60;;;;;;5123090;27;20027;-89
2022/03/28 00:55:07;;;;;;;20.77;4.82;;;12.10;80.80;;;;;;5122688;27;20049;-89
2022/03/28 00:57:33;;;;;;;20.48;4.75;;;12.00;80.90;;;;;;5138688;27;20023;-89
2022/03/28 01:00:00;;;;;;;27.27;5.18;;;12.00;81.10;;;;;;5120434;27;20376;-89
2022/03/28 01:02:26;;;;;;;23.50;5.28;;;12.00;81.20;;;;;;5119301;27;20090;-90
2022/03/28 01:04:52;;;;;;;23.02;5.32;;;11.90;81.20;;;;;;5101510;27;20114;-89
2022/03/28 01:07:19;;;;;;;23.40;5.38;;;11.90;81.30;;;;;;5101869;27;20027;-89
2022/03/28 01:09:45;;;;;;;21.92;4.75;;;11.90;81.70;;;;;;5101913;27;20031;-90
2022/03/28 01:12:12;;;;;;;19.52;4.85;;;11.80;81.80;;;;;;5101887;27;20384;-90
2022/03/28 01:14:38;;;;;;;19.48;5.22;;;11.80;82.00;;;;;;5118818;27;20019;-90
2022/03/28 01:19:55;;;;;;;24.90;6.57;;;11.80;82.40;;;;;;5121328;27;20096;-89
2022/03/28 01:22:21;;;;;;;21.10;4.65;;;11.70;82.70;;;;;;5101624;27;20027;-89
2022/03/28 01:24:47;;;;;;;18.30;4.43;;;11.70;82.80;;;;;;5118649;27;20465;-89
2022/03/28 01:27:14;;;;;;;24.15;5.80;;;11.70;83.50;;;;;;5101370;27;20114;-89
2022/03/28 01:29:42;;;;;;;23.08;4.53;;;11.60;83.20;;;;;;5118534;27;20028;-89
2022/03/28 01:32:09;;;;;;;25.90;5.45;;;11.60;83.40;;;;;;5118480;27;20027;-89
2022/03/28 01:34:34;;;;;;;23.65;6.05;;;11.60;83.50;;;;;;5101566;27;20719;-89
2022/03/28 01:37:00;;;;;;;19.00;4.97;;;11.60;83.70;;;;;;5101313;27;20126;-88
2022/03/28 01:39:26;;;;;;;24.35;5.70;;;11.50;83.90;;;;;;5101501;27;20058;-89
2022/03/28 01:41:52;;;;;;;22.85;6.18;;;11.50;84.20;;;;;;5101438;27;20020;-89
2022/03/28 01:44:18;;;;;;;23.88;5.30;;;11.50;84.30;;;;;;5118228;27;20486;-89
2022/03/28 01:46:47;;;;;;;20.67;5.63;;;11.40;84.50;;;;;;5101209;27;20015;-89
2022/03/28 01:49:14;;;;;;;19.63;4.75;;;11.40;84.80;;;;;;5118130;27;20030;-89
2022/03/28 01:51:40;;;;;;;24.73;5.63;;;11.40;85.70;;;;;;5118101;27;20099;-89
2022/03/28 01:54:06;;;;;;;21.00;5.20;;;11.40;85.40;;;;;;5118524;27;20031;-89
2022/03/28 01:56:34;;;;;;;20.83;5.10;;;11.30;85.60;;;;;;5100954;27;20100;-89
2022/03/28 01:59:00;;;;;;;24.67;6.05;;;11.30;85.80;;;;;;5117885;27;20143;-89
2022/03/28 02:01:26;;;;;;;24.95;6.28;;;11.30;86.00;;;;;;5101066;27;20054;-89
2022/03/28 02:03:51;;;;;;;18.65;5.20;;;11.30;85.90;;;;;;5118010;27;20472;-89
2022/03/28 02:06:17;;;;;;;21.08;5.32;;;11.20;86.10;;;;;;5101032;27;20057;-89
2022/03/28 02:08:43;;;;;;;20.73;5.45;;;11.20;86.20;;;;;;5100994;27;20023;-89
2022/03/28 02:11:09;;;;;;;25.65;5.82;;;11.20;86.50;;;;;;5100728;27;20027;-89
2022/03/28 02:13:34;;;;;;;21.30;5.13;;;11.20;86.90;;;;;;5100780;27;20166;-89
2022/03/28 02:16:00;;;;;;;23.10;5.43;;;11.10;86.90;;;;;;5099843;27;20038;-89
2022/03/28 02:18:27;;;;;;;25.45;5.90;;;11.10;87.10;;;;;;5117345;27;20084;-90
2022/03/28 02:20:53;;;;;;;24.85;6.13;;;11.10;87.20;;;;;;5121096;27;20027;-90
2022/03/28 02:23:20;;;;;;;23.42;6.45;;;11.10;87.40;;;;;;5103342;27;20015;-89
2022/03/28 02:25:46;;;;;;;26.25;5.18;;;11.00;87.50;;;;;;5118286;27;20030;-89
2022/03/28 02:28:12;;;;;;;27.38;5.78;;;11.00;87.40;;;;;;5105717;27;20031;-89
2022/03/28 02:30:38;;;;;;;21.80;5.35;;;11.00;87.40;;;;;;5111504;27;20067;-89
2022/03/28 02:33:04;;;;;;;26.02;6.13;;;11.00;87.60;;;;;;5120873;27;20031;-89
2022/03/28 02:35:30;;;;;;;25.00;5.78;;;10.90;87.70;;;;;;5121075;27;20552;-89
2022/03/28 02:38:00;;;;;;;25.05;6.10;;;10.90;88.00;;;;;;5103822;27;20027;-89
2022/03/28 02:40:26;;;;;;;26.50;6.35;;;10.80;88.10;;;;;;5121571;27;20467;-89
2022/03/28 02:42:52;;;;;;;24.73;5.40;;;10.80;88.40;;;;;;5137834;27;20118;-89
2022/03/28 02:45:18;;;;;;;24.67;5.68;;;10.80;88.60;;;;;;5120749;27;20050;-89
2022/03/28 02:47:43;;;;;;;17.60;4.95;;;10.80;88.80;;;;;;5137948;27;20038;-89
2022/03/28 02:50:09;;;;;;;26.08;6.20;;;10.70;88.90;;;;;;5103927;27;20098;-88
2022/03/28 02:52:34;;;;;;;19.80;5.15;;;10.70;89.00;;;;;;5157045;27;20065;-89
2022/03/28 02:55:00;;;;;;;26.77;5.93;;;10.70;89.20;;;;;;5121455;27;20143;-89
2022/03/28 02:57:26;;;;;;;21.65;5.30;;;10.60;89.30;;;;;;5120612;27;20171;-89
2022/03/28 02:59:51;;;;;;;24.77;6.18;;;10.60;89.60;;;;;;5103374;27;20031;-89
2022/03/28 03:02:17;;;;;;;26.13;6.95;;;10.60;89.80;;;;;;5120605;27;20433;-89
2022/03/28 03:04:43;;;;;;;24.42;5.63;;;10.60;89.90;;;;;;5120387;27;20026;-90
2022/03/28 03:07:08;;;;;;;22.80;5.53;;;10.50;90.00;;;;;;5103269;27;20384;-90
2022/03/28 03:09:35;;;;;;;24.50;5.53;;;10.50;90.10;;;;;;5103315;27;20026;-90
2022/03/28 03:12:01;;;;;;;21.05;5.85;;;10.50;90.10;;;;;;5137514;27;20019;-89
2022/03/28 03:14:27;;;;;;;25.30;5.93;;;10.50;90.20;;;;;;5137507;27;20102;-89
2022/03/28 03:16:53;;;;;;;25.75;6.22;;;10.40;90.30;;;;;;5120531;27;20037;-89
2022/03/28 03:19:19;;;;;;;24.73;5.90;;;10.40;90.40;;;;;;5119846;27;20129;-89
2022/03/28 03:21:46;;;;;;;24.10;6.22;;;10.40;90.40;;;;;;5103279;27;20023;-89
2022/03/28 03:24:11;;;;;;;24.10;6.70;;;10.40;90.50;;;;;;5103594;27;20052;-89
2022/03/28 03:26:37;;;;;;;22.85;6.55;;;10.30;90.50;;;;;;5121904;27;20018;-89
2022/03/28 03:29:03;;;;;;;26.05;6.57;;;10.30;90.60;;;;;;5107598;27;20034;-89
2022/03/28 03:31:29;;;;;;;22.13;5.63;;;10.30;90.70;;;;;;5124223;27;20027;-89
2022/03/28 03:33:55;;;;;;;18.35;5.82;;;10.20;90.70;;;;;;5124285;27;20110;-89
2022/03/28 03:36:38;;;;;;;22.30;5.78;;;10.20;90.70;;;;;;5123127;27;20029;-89
2022/03/28 03:39:04;;;;;;;24.13;7.43;;;10.20;90.70;;;;;;5120992;27;20118;-89
2022/03/28 03:41:30;;;;;;;20.67;5.70;;;10.10;90.80;;;;;;5103637;27;20023;-90
2022/03/28 03:43:56;;;;;;;22.42;5.97;;;10.10;90.90;;;;;;5103653;27;20043;-89
2022/03/28 03:46:22;;;;;;;22.63;5.97;;;10.10;91.00;;;;;;5103490;27;20434;-89
2022/03/28 03:48:47;;;;;;;23.88;6.03;;;10.10;91.00;;;;;;5103429;27;20039;-88
2022/03/28 03:51:13;;;;;;;25.83;7.45;;;10.00;91.00;;;;;;5120651;27;20022;-89
2022/03/28 03:53:39;;;;;;;26.88;6.43;;;10.00;91.00;;;;;;5103293;27;20027;-90
2022/03/28 03:56:05;;;;;;;23.88;6.85;;;9.90;91.00;;;;;;5103394;27;20031;-89
2022/03/28 03:58:30;;;;;;;22.52;6.90;;;9.90;91.10;;;;;;5103346;27;20028;-89
2022/03/28 04:00:56;;;;;;;21.77;6.05;;;9.90;91.00;;;;;;5103170;27;20127;-89
2022/03/28 04:03:22;;;;;;;25.13;7.07;;;9.90;91.00;;;;;;5103441;27;20106;-89
2022/03/28 04:05:47;;;;;;;27.63;7.47;;;9.80;91.00;;;;;;5102825;27;20332;-89
2022/03/28 04:08:13;;;;;;;21.35;7.57;;;9.80;91.20;;;;;;5120034;27;20019;-89
2022/03/28 04:10:39;;;;;;;20.85;6.22;;;9.80;91.30;;;;;;5103027;27;20030;-89
2022/03/28 04:13:04;;;;;;;24.10;6.50;;;9.80;91.50;;;;;;5102987;27;20102;-89
2022/03/28 04:15:30;;;;;;;25.38;7.18;;;9.70;91.50;;;;;;5120134;27;20380;-89
2022/03/28 04:17:56;;;;;;;23.13;7.65;;;9.70;91.50;;;;;;5102607;27;20051;-90
2022/03/28 04:20:22;;;;;;;23.80;6.55;;;9.70;91.50;;;;;;5103012;27;20031;-90
2022/03/28 04:22:48;;;;;;;23.92;6.70;;;9.70;91.50;;;;;;5102921;27;20015;-90
2022/03/28 04:25:15;;;;;;;22.20;7.43;;;9.60;91.50;;;;;;5102869;27;20167;-89
2022/03/28 04:27:41;;;;;;;22.10;7.32;;;9.60;91.40;;;;;;5119971;27;20076;-89
2022/03/28 04:30:09;;;;;;;22.85;5.90;;;9.60;91.50;;;;;;5119791;27;20019;-90
2022/03/28 04:32:36;;;;;;;23.58;6.55;;;9.60;91.70;;;;;;5102910;27;20037;-90
2022/03/28 04:35:04;;;;;;;19.65;6.95;;;9.50;91.80;;;;;;5102755;27;20019;-89
2022/03/28 04:37:37;;;;;;;25.15;8.02;;;9.50;91.90;;;;;;5119157;27;20055;-90
2022/03/28 04:40:06;;;;;;;25.23;7.57;;;9.40;92.00;;;;;;5119443;27;20127;-89
2022/03/28 04:42:32;;;;;;;18.98;6.43;;;9.40;92.00;;;;;;5119435;27;20015;-90
2022/03/28 04:44:58;;;;;;;19.70;7.00;;;9.40;92.10;;;;;;5102597;27;20476;-89
2022/03/28 04:47:23;;;;;;;25.85;7.53;;;9.40;92.20;;;;;;5102339;27;20031;-90
2022/03/28 04:49:49;;;;;;;20.75;6.80;;;9.30;92.30;;;;;;5102074;27;20075;-89
2022/03/28 04:52:15;;;;;;;16.27;6.32;;;9.30;92.40;;;;;;5102327;27;20035;-89
2022/03/28 04:54:40;;;;;;;19.15;6.88;;;9.30;92.50;;;;;;5102258;27;20039;-89
2022/03/28 04:57:06;;;;;;;24.48;7.90;;;9.30;92.50;;;;;;5101843;27;20023;-90
2022/03/28 04:59:32;;;;;;;21.50;6.97;;;9.30;92.60;;;;;;5118254;27;20019;-90
2022/03/28 05:01:59;;;;;;;16.77;6.93;;;9.20;92.60;;;;;;5117966;27;20079;-89
2022/03/28 05:04:25;;;;;;;19.25;7.65;;;9.20;92.70;;;;;;5117989;27;20030;-89
2022/03/28 05:06:51;;;;;;;19.35;6.55;;;9.20;92.90;;;;;;5118850;27;20026;-90
2022/03/28 05:09:17;;;;;;;17.58;6.68;;;9.10;92.90;;;;;;5101679;27;20015;-89
2022/03/28 05:11:43;;;;;;;17.17;6.68;;;9.10;92.90;;;;;;5101754;27;20023;-89
2022/03/28 05:14:09;;;;;;;18.58;7.03;;;9.10;93.10;;;;;;5118595;27;20063;-89
2022/03/28 05:16:36;;;;;;;20.65;6.40;;;9.00;92.20;;;;;;5118635;27;20023;-89
2022/03/28 05:19:02;;;;;;;23.75;7.32;;;8.90;92.00;;;;;;5101504;27;20044;-89
2022/03/28 05:21:28;;;;;;;15.27;6.57;;;8.80;92.10;;;;;;5100864;27;20031;-90
2022/03/28 05:23:53;;;;;;;20.52;6.93;;;8.70;92.30;;;;;;5103862;27;20016;-90
2022/03/28 05:26:19;;;;;;;21.00;7.07;;;8.70;92.50;;;;;;5102536;27;20377;-89
2022/03/28 05:28:57;;;;;;;23.67;7.03;;;8.60;92.70;;;;;;5099570;27;20086;-89
2022/03/28 05:31:23;;;;;;;17.08;6.85;;;8.60;93.10;;;;;;5103682;27;20034;-89
2022/03/28 05:33:48;;;;;;;17.30;7.93;;;8.60;93.30;;;;;;5103291;27;20539;-89
2022/03/28 05:36:14;;;;;;;16.98;7.20;;;8.60;93.40;;;;;;5101623;27;20027;-88
2022/03/28 05:38:42;;;;;;;20.48;7.55;;;8.50;93.60;;;;;;5101127;27;20024;-89
2022/03/28 05:41:08;;;;;;;19.60;7.70;;;8.50;93.80;;;;;;5118055;27;20033;-89
2022/03/28 05:43:35;;;;;;;18.58;8.25;;;8.60;93.80;;;;;;5117431;27;20033;-89
2022/03/28 05:46:02;;;;;;;18.67;8.10;;;8.50;94.10;;;;;;5100083;27;20019;-89
2022/03/28 05:48:28;;;;;;;15.57;7.63;;;8.50;93.90;;;;;;5117512;27;20105;-89
2022/03/28 05:50:54;;;;;;;21.42;8.10;;;8.50;94.10;;;;;;5100115;27;20027;-89
2022/03/28 05:53:19;;;;;;;22.23;8.40;;;8.50;93.90;;;;;;5117994;27;20053;-89
2022/03/28 05:55:45;;;;;;;19.25;8.07;;;8.50;93.90;;;;;;5101204;27;20035;-89
2022/03/28 05:58:11;;;;;;;23.92;8.90;;;8.50;94.10;;;;;;5101205;27;20023;-89
2022/03/28 06:00:38;;;;;;;26.50;8.65;;;8.50;94.30;;;;;;5101248;27;20034;-89
2022/03/28 06:03:08;;;;;;;23.55;8.82;;;8.40;94.30;;;;;;5101190;27;20034;-89
2022/03/28 06:05:37;;;;;;;23.40;9.18;;;8.40;94.40;;;;;;5101594;27;20023;-89
2022/03/28 06:08:03;;;;;;;23.73;9.15;;;8.40;94.60;;;;;;5118070;27;20027;-89
2022/03/28 06:10:29;;;;;;;26.20;8.75;;;8.40;94.60;;;;;;5101179;27;20108;-88
2022/03/28 06:12:55;;;;;;;23.77;9.45;;;8.40;94.70;;;;;;5117862;27;20035;-90
2022/03/28 06:15:21;;;;;;;27.08;8.88;;;8.40;94.80;;;;;;5106160;27;20023;-89
2022/03/28 06:17:47;;;;;;;23.05;8.18;;;8.40;95.00;;;;;;5117447;27;20064;-88
2022/03/28 06:20:13;;;;;;;27.85;8.38;;;8.40;95.10;;;;;;5117562;27;20019;-89
2022/03/28 06:22:39;;;;;;;20.73;8.63;;;8.50;95.20;;;;;;5134683;27;20012;-89
2022/03/28 06:25:06;;;;;;;23.05;9.00;;;8.40;95.40;;;;;;5134714;27;20047;-89
2022/03/28 06:27:32;;;;;;;20.60;9.63;;;8.40;95.40;;;;;;5118061;27;20494;-89
2022/03/28 06:29:57;;;;;;;24.92;9.07;;;8.50;95.40;;;;;;5117627;27;20110;-89
2022/03/28 06:32:23;;;;;;;19.23;8.65;;;8.50;95.30;;;;;;5126176;27;20033;-88
2022/03/28 06:34:52;;;;;;;16.63;8.07;;;8.40;95.30;;;;;;5123020;27;20030;-90
2022/03/28 06:37:36;;;;;;;20.83;9.40;;;8.50;95.30;;;;;;5137893;27;20079;-88
2022/03/28 06:40:04;;;;;;;19.10;9.55;;;8.50;95.10;;;;;;5137775;27;20023;-89
2022/03/28 06:42:32;;;;;;;21.02;10.57;;;8.50;95.20;;;;;;5122367;27;20361;-90
2022/03/28 06:44:58;;;;;;;21.42;9.90;;;8.40;95.00;;;;;;5121410;27;20467;-89
2022/03/28 06:47:42;;;;;;;24.25;9.40;;;8.40;94.90;;;;;;5135472;27;20019;-90
2022/03/28 06:50:09;;;;;;;18.00;9.30;;;8.40;95.00;;;;;;5116670;27;20090;-89
2022/03/28 06:52:35;;;;;;;21.38;10.20;;;8.30;95.00;;;;;;5117750;27;20475;-90
2022/03/28 06:55:02;;;;;;;17.48;9.20;;;8.30;95.10;;;;;;5118301;28;20027;-90
2022/03/28 06:57:28;;;;;;;18.17;8.98;;;8.30;95.40;;;;;;5117965;28;20027;-90
2022/03/28 06:59:54;;;;;;;19.50;8.77;;;8.30;95.40;;;;;;5118490;28;20026;-90
2022/03/28 07:02:20;;;;;;;18.38;9.13;;;8.30;95.50;;;;;;5117891;28;20039;-90
2022/03/28 07:04:45;;;;;;;20.00;10.02;;;8.40;95.80;;;;;;5117477;28;20027;-91
2022/03/28 07:07:11;;;;;;;15.32;9.00;;;8.40;95.80;;;;;;5116910;28;20031;-90
2022/03/28 07:09:37;;;;;;;20.35;9.35;;;8.40;95.80;;;;;;5117133;28;20046;-90
2022/03/28 07:12:05;;;;;;;15.55;9.25;;;8.40;95.80;;;;;;5099950;28;20106;-90
2022/03/28 07:14:32;;;;;;;19.58;9.25;;;8.50;95.90;;;;;;5134523;28;20035;-90
2022/03/28 07:16:57;;;;;;;18.30;8.90;;;8.50;95.80;;;;;;5119694;27;20043;-90
2022/03/28 07:19:23;;;;;;;16.45;8.40;;;8.50;96.00;;;;;;5099997;27;20046;-89
2022/03/28 07:22:07;;;;;;;17.52;9.60;;;8.50;95.90;;;;;;5131310;27;20007;-90
2022/03/28 07:24:33;;;;;;;15.77;9.60;;;8.60;95.90;;;;;;5117069;27;20023;-90
2022/03/28 07:27:18;;;;;;;21.73;10.45;;;8.60;95.80;;;;;;5102961;27;20098;-90
2022/03/28 07:29:44;;;;;;;16.83;9.00;;;8.60;95.60;;;;;;5113824;27;20048;-90
2022/03/28 07:32:09;;;;;;;16.20;9.27;;;8.60;95.60;;;;;;5117187;28;20034;-89
2022/03/28 07:34:35;;;;;;;18.15;8.95;;;8.60;95.60;;;;;;5083746;28;20020;-91
2022/03/28 07:37:05;;;;;;;15.75;9.75;;;8.60;95.80;;;;;;5083838;28;20479;-91
2022/03/28 07:39:34;;;;;;;18.35;10.05;;;8.70;95.50;;;;;;5117603;28;20022;-92
2022/03/28 07:42:22;;;;;;;17.27;9.15;;;8.70;95.40;;;;;;5117588;28;20083;-91
2022/03/28 07:44:48;;;;;;;19.90;10.68;;;8.70;95.30;;;;;;5099941;28;20019;-92
2022/03/28 07:47:14;;;;;;;18.85;9.35;;;8.70;95.40;;;;;;5114093;27;20039;-90
2022/03/28 07:49:40;;;;;;;16.85;9.68;;;8.70;95.40;;;;;;5134557;27;20031;-90
2022/03/28 07:52:08;;;;;;;16.15;9.48;;;8.80;95.40;;;;;;5117475;27;20027;-90
2022/03/28 07:54:34;;;;;;;15.02;9.07;;;8.80;95.40;;;;;;5103102;27;20030;-90
2022/03/28 07:57:00;;;;;;;15.10;9.05;;;8.80;95.30;;;;;;5116974;27;20421;-90
2022/03/28 07:59:27;;;;;;;16.38;10.38;;;8.80;95.30;;;;;;5137091;27;20023;-91
2022/03/28 08:01:52;;;;;;;14.13;9.82;;;8.90;95.30;;;;;;5120336;27;20023;-90
2022/03/28 08:04:18;;;;;;;15.98;10.57;;;8.90;95.30;;;;;;5137347;27;20027;-90
2022/03/28 08:06:44;;;;;;;16.55;10.25;;;9.00;95.40;;;;;;5103346;27;20087;-91
2022/03/28 08:09:10;;;;;;;20.65;11.45;;;9.00;95.30;;;;;;5120110;27;20483;-90
2022/03/28 08:11:35;;;;;;;21.38;11.85;;;9.00;95.20;;;;;;5137264;27;20031;-88
2022/03/28 08:14:03;;;;;;;20.67;12.40;;;9.10;95.20;;;;;;5121833;27;20030;-92
2022/03/28 08:16:29;;;;;;;19.45;10.70;;;9.10;95.50;;;;;;5106809;27;20061;-91
2022/03/28 08:18:55;;;;;;;17.10;10.45;;;9.10;95.20;;;;;;5140084;27;20078;-91
2022/03/28 08:21:21;;;;;;;19.75;12.10;;;9.20;95.30;;;;;;5123266;27;20499;-91
2022/03/28 08:23:47;;;;;;;19.90;12.55;;;9.20;95.30;;;;;;5123431;27;20498;-90
2022/03/28 08:26:31;;;;;;;18.90;11.23;;;9.20;95.30;;;;;;5140300;27;20015;-90
2022/03/28 08:28:57;;;;;;;21.15;11.80;;;9.20;95.20;;;;;;5123365;27;20039;-89
2022/03/28 08:31:22;;;;;;;22.35;12.50;;;9.20;95.30;;;;;;5141842;27;20491;-91
2022/03/28 08:33:48;;;;;;;21.25;12.75;;;9.20;95.60;;;;;;5122217;22;20143;-88
2022/03/28 08:36:14;;;;;;;21.08;12.75;;;9.20;95.70;;;;;;5079189;28;20109;-88
2022/03/28 08:38:40;;;;;;;18.88;12.10;;;9.30;96.10;;;;;;5074873;28;20037;-88
2022/03/28 08:41:12;;;;;;;23.08;12.98;;;9.30;96.10;;;;;;5075915;28;20040;-88
2022/03/28 08:43:38;;;;;;;20.17;12.88;;;9.40;96.20;;;;;;5076589;28;20033;-88
2022/03/28 08:46:05;;;;;;;21.02;12.27;;;9.50;96.40;;;;;;5092486;28;20032;-88
2022/03/28 08:48:39;;;;;;;21.35;11.20;;;9.50;96.40;;;;;;5095309;28;20122;-88
2022/03/28 08:51:05;;;;;;;25.33;13.38;;;9.50;96.20;;;;;;5095785;28;20054;-88
2022/03/28 08:53:31;;;;;;;26.00;12.05;;;9.50;95.90;;;;;;5095909;28;20038;-88
2022/03/28 08:55:57;;;;;;;23.75;12.27;;;9.50;96.00;;;;;;5095977;28;20035;-88
2022/03/28 08:58:23;;;;;;;21.02;13.20;;;9.60;96.20;;;;;;5095579;28;20024;-88
2022/03/28 09:04:12;;;;;;;24.05;13.68;;;9.70;96.40;;;;;;5081539;28;20046;-88
2022/03/28 09:06:42;;;;;;;22.38;12.05;;;9.70;96.40;;;;;;5058718;28;20028;-88
2022/03/28 09:09:12;;;;;;;23.77;13.57;;;9.80;96.30;;;;;;5074903;28;20027;-88
2022/03/28 09:11:39;;;;;;;21.25;13.68;;;9.90;96.40;;;;;;5059019;28;20127;-89
2022/03/28 09:14:05;;;;;;;25.60;14.15;;;10.00;96.40;;;;;;5076470;28;20069;-88
2022/03/28 09:16:34;;;;;;;23.45;13.80;;;10.00;96.40;;;;;;5078110;28;20032;-88
2022/03/28 09:19:08;;;;;;;23.65;13.75;;;10.10;96.40;;;;;;5078961;28;20032;-88
2022/03/28 09:21:36;;;;;;;18.85;11.43;;;10.20;96.40;;;;;;5095356;28;20056;-88
2022/03/28 09:24:05;;;;;;;24.20;13.60;;;10.30;96.40;;;;;;5094997;28;20020;-88
2022/03/28 09:26:30;;;;;;;23.20;14.85;;;10.40;96.40;;;;;;5091675;28;20024;-88
2022/03/28 09:29:01;;;;;;;25.58;15.25;;;10.50;96.20;;;;;;5041831;28;20031;-88
2022/03/28 09:31:36;;;;;;;24.08;15.73;;;10.60;96.10;;;;;;5079521;28;20031;-88
2022/03/28 09:34:09;;;;;;;27.63;16.58;;;10.70;96.30;;;;;;5091784;28;20164;-88
2022/03/28 09:36:44;;;;;;;25.08;15.18;;;10.80;96.30;;;;;;5093305;28;20088;-88
2022/03/28 09:39:21;;;;;;;24.30;14.38;;;10.90;96.10;;;;;;5094838;28;20033;-88
2022/03/28 09:45:19;;;;;;;23.35;14.40;;;11.10;95.90;;;;;;5105172;28;20066;-88
2022/03/28 09:51:07;;;;;;;25.13;13.93;;;11.40;95.60;;;;;;5097724;28;20172;-88
2022/03/28 09:53:38;;;;;;;21.60;11.88;;;11.50;95.60;;;;;;5082633;28;20032;-88
2022/03/28 09:56:08;;;;;;;21.05;11.82;;;11.60;95.40;;;;;;5098554;28;20028;-88
2022/03/28 09:58:45;;;;;;;19.20;12.38;;;11.70;95.10;;;;;;5103094;28;20071;-88
2022/03/28 10:01:35;;;;;;;17.42;11.10;;;11.80;95.20;;;;;;5096868;28;20052;-88
2022/03/28 10:04:05;;;;;;;17.00;10.70;;;11.90;94.80;;;;;;5103472;28;20011;-89
2022/03/28 10:06:35;;;;;;;15.18;10.63;;;12.00;94.10;;;;;;5096592;28;20027;-88
2022/03/28 10:09:01;;;;;;;17.92;11.98;;;12.10;93.90;;;;;;5094118;28;20016;-88
2022/03/28 10:11:28;;;;;;;16.23;10.80;;;12.20;94.00;;;;;;5094305;28;20062;-88
2022/03/28 10:13:54;;;;;;;18.35;10.88;;;12.30;94.10;;;;;;5077614;28;20035;-89
2022/03/28 10:16:20;;;;;;;19.20;11.13;;;12.40;94.20;;;;;;5094464;28;20358;-89
2022/03/28 10:18:47;;;;;;;17.65;10.90;;;12.50;94.10;;;;;;5094405;28;20031;-91
2022/03/28 10:21:18;;;;;;;16.70;10.82;;;12.60;93.90;;;;;;5094245;28;20028;-89
2022/03/28 10:24:05;;;;;;;15.48;10.48;;;12.80;93.90;;;;;;5094533;28;20031;-88
2022/03/28 10:26:34;;;;;;;16.52;9.80;;;13.00;93.90;;;;;;5094737;28;20024;-88
2022/03/28 10:29:08;;;;;;;16.13;9.95;;;13.10;93.60;;;;;;5094806;28;20105;-88
2022/03/28 10:31:56;;;;;;;16.58;10.05;;;13.20;93.00;;;;;;5095445;28;20055;-88
2022/03/28 10:34:56;;;;;;;16.20;9.85;;;13.30;93.00;;;;;;5079971;28;20042;-88
2022/03/28 10:37:35;;;;;;;16.95;10.82;;;13.40;92.80;;;;;;5092453;28;20036;-88
2022/03/28 10:40:21;;;;;;;17.60;11.23;;;13.60;92.80;;;;;;5093634;28;20105;-88
2022/03/28 10:43:06;;;;;;;17.85;10.60;;;13.70;92.60;;;;;;5094993;28;20024;-88
2022/03/28 10:45:46;;;;;;;17.77;10.90;;;13.80;92.30;;;;;;5094330;28;20031;-88
2022/03/28 10:48:12;;;;;;;15.50;10.38;;;14.00;92.10;;;;;;5094205;28;20074;-88
2022/03/28 10:50:51;;;;;;;15.82;10.50;;;14.10;91.70;;;;;;5094265;28;20085;-88
2022/03/28 10:53:29;;;;;;;17.80;10.60;;;14.20;91.50;;;;;;5094623;28;20020;-88
2022/03/28 10:56:05;;;;;;;19.75;10.60;;;14.30;91.60;;;;;;5094004;28;20082;-88
2022/03/28 10:58:48;;;;;;;16.42;10.93;;;14.40;91.40;;;;;;5094152;28;20028;-88
2022/03/28 11:01:16;;;;;;;19.58;9.95;;;14.50;91.00;;;;;;5092699;28;20026;-88
2022/03/28 11:03:46;;;;;;;18.67;10.98;;;14.60;91.00;;;;;;5081005;28;20085;-88
2022/03/28 11:06:14;;;;;;;16.40;11.03;;;14.70;90.60;;;;;;5093607;28;20012;-87
2022/03/28 11:08:46;;;;;;;17.10;10.95;;;14.80;90.60;;;;;;5076671;28;20418;-88
2022/03/28 11:11:21;;;;;;;16.30;10.85;;;14.90;89.90;;;;;;5093257;28;20024;-88
2022/03/28 11:14:05;;;;;;;23.65;11.88;;;15.00;90.10;;;;;;5093705;28;20032;-88
2022/03/28 11:16:41;;;;;;;18.20;11.32;;;15.20;90.10;;;;;;5093140;28;20032;-88
2022/03/28 11:19:20;;;;;;;15.10;10.30;;;15.30;89.30;;;;;;5093519;28;20029;-88
2022/03/28 11:22:00;;;;;;;17.95;11.88;;;15.40;88.70;;;;;;5093592;28;20078;-88
2022/03/28 11:24:42;;;;;;;16.38;10.82;;;15.50;88.20;;;;;;5093265;28;20036;-88
2022/03/28 11:27:09;;;;;;;21.90;12.20;;;15.60;88.20;;;;;;5096105;28;20027;-87
2022/03/28 11:29:35;;;;;;;17.17;11.25;;;15.80;88.20;;;;;;5098320;28;20028;-88
2022/03/28 11:32:13;;;;;;;18.40;11.43;;;15.90;87.80;;;;;;5083717;28;20062;-88
2022/03/28 11:34:39;;;;;;;16.63;11.15;;;16.00;85.90;;;;;;5100997;28;20051;-88
2022/03/28 11:37:05;;;;;;;17.77;11.00;;;16.10;85.70;;;;;;5067376;28;20537;-89
2022/03/28 11:39:50;;;;;;;18.02;11.35;;;16.20;85.90;;;;;;5062845;28;20108;-88
2022/03/28 11:42:22;;;;;;;16.20;10.95;;;16.40;85.90;;;;;;5073340;28;20028;-88
2022/03/28 11:44:49;;;;;;;16.38;10.50;;;16.40;83.90;;;;;;5073212;28;20040;-89
2022/03/28 11:47:17;;;;;;;16.50;10.55;;;16.50;83.90;;;;;;5060845;28;20032;-88
2022/03/28 11:49:57;;;;;;;16.45;11.35;;;16.60;84.30;;;;;;5060414;28;20009;-87
2022/03/28 11:52:25;;;;;;;17.50;11.73;;;16.70;83.50;;;;;;5097301;28;20013;-88
2022/03/28 11:54:51;;;;;;;17.90;11.43;;;16.80;83.10;;;;;;5097960;28;20017;-88
2022/03/28 12:00:20;;;;;;;18.25;10.95;;;17.10;82.70;;;;;;5097257;28;20040;-89
2022/03/28 12:02:50;;;;;;;18.17;12.27;;;17.20;82.40;;;;;;5088196;28;20056;-88
2022/03/28 12:05:40;;;;;;;18.80;11.85;;;17.40;81.10;;;;;;5046173;28;20026;-88
2022/03/28 12:08:14;;;;;;;18.77;12.00;;;17.50;80.30;;;;;;5078639;28;20042;-88
2022/03/28 12:10:50;;;;;;;19.75;11.20;;;17.50;80.00;;;;;;5061753;28;20028;-88
2022/03/28 12:13:17;;;;;;;19.33;11.95;;;17.60;80.10;;;;;;5061293;28;20140;-87
2022/03/28 12:15:46;;;;;;;19.23;11.57;;;17.70;79.90;;;;;;5060005;28;20086;-88
2022/03/28 12:18:13;;;;;;;16.55;11.05;;;17.80;79.40;;;;;;5078247;28;20029;-89
2022/03/28 12:20:42;;;;;;;16.48;11.07;;;17.90;79.50;;;;;;5080071;28;20034;-88
2022/03/28 12:23:09;;;;;;;19.27;11.40;;;17.90;78.80;;;;;;5097497;28;20020;-88
2022/03/28 12:25:39;;;;;;;16.50;11.40;;;18.00;77.70;;;;;;5097307;28;20117;-88
2022/03/28 12:28:14;;;;;;;14.15;10.50;;;18.10;77.80;;;;;;5103415;28;20079;-88
2022/03/28 12:30:50;;;;;;;19.83;11.32;;;18.10;77.60;;;;;;5109290;28;20024;-89
2022/03/28 12:33:28;;;;;;;20.13;12.10;;;18.10;76.70;;;;;;5103062;28;20044;-88
2022/03/28 12:36:03;;;;;;;17.27;11.70;;;18.20;77.60;;;;;;5108126;28;20016;-88
2022/03/28 12:38:32;;;;;;;16.75;11.70;;;18.30;76.90;;;;;;5105584;28;20164;-88
2022/03/28 12:41:01;;;;;;;19.38;11.82;;;18.40;76.10;;;;;;5098887;28;20024;-88
2022/03/28 12:43:28;;;;;;;17.92;11.50;;;18.40;75.90;;;;;;5079747;28;20055;-88
2022/03/28 12:45:55;;;;;;;15.95;11.45;;;18.50;76.20;;;;;;5079109;28;20024;-88
2022/03/28 12:48:21;;;;;;;18.05;11.95;;;18.60;76.00;;;;;;5079058;28;20366;-87
2022/03/28 12:50:58;;;;;;;19.20;11.77;;;18.70;76.00;;;;;;5079156;28;20028;-88
2022/03/28 12:53:27;;;;;;;18.33;13.18;;;18.80;75.50;;;;;;5095830;28;20027;-88
2022/03/28 12:55:53;;;;;;;16.63;11.45;;;18.80;75.40;;;;;;5095749;28;20020;-88
2022/03/28 12:58:29;;;;;;;21.05;12.57;;;18.80;73.20;;;;;;5079459;28;20024;-88
2022/03/28 13:01:06;;;;;;;19.83;13.40;;;18.90;72.80;;;;;;5080413;28;20031;-89